sensor_id;sensor_type;location;lat;lon;timestamp;P1;durP1;ratioP1;P2;durP2;ratioP2
68577;SDS011;61668;45.388;11.784;2022-07-23T00:01:19;16.10;;;11.80;;
68577;SDS011;61668;45.388;11.784;2022-07-23T00:03:46;18.60;;;13.50;;
68577;SDS011;61668;45.388;11.784;2022-07-23T00:06:12;17.90;;;13.80;;
68577;SDS011;61668;45.388;11.784;2022-07-23T00:08:37;19.80;;;12.70;;
68577;SDS011;61668;45.388;11.784;2022-07-23T00:11:03;16.90;;;12.20;;
68577;SDS011;61668;45.388;11.784;2022-07-23T00:13:29;17.50;;;12.90;;
68577;SDS011;61668;45.388;11.784;2022-07-23T00:15:54;18.90;;;11.10;;
68577;SDS011;61668;45.388;11.784;2022-07-23T00:18:20;18.30;;;12.50;;
68577;SDS011;61668;45.388;11.784;2022-07-23T00:20:47;14.80;;;10.30;;
68577;SDS011;61668;45.388;11.784;2022-07-23T00:23:12;19.00;;;12.50;;
68577;SDS011;61668;45.388;11.784;2022-07-23T00:25:38;16.70;;;11.40;;
68577;SDS011;61668;45.388;11.784;2022-07-23T00:28:04;16.00;;;12.90;;
68577;SDS011;61668;45.388;11.784;2022-07-23T00:30:31;16.20;;;11.60;;
68577;SDS011;61668;45.388;11.784;2022-07-23T00:33:02;18.00;;;13.20;;
68577;SDS011;61668;45.388;11.784;2022-07-23T00:35:36;14.50;;;11.00;;
68577;SDS011;61668;45.388;11.784;2022-07-23T00:40:33;15.50;;;11.10;;
68577;SDS011;61668;45.388;11.784;2022-07-23T00:42:59;14.60;;;10.30;;
68577;SDS011;61668;45.388;11.784;2022-07-23T00:45:26;16.50;;;10.80;;
68577;SDS011;61668;45.388;11.784;2022-07-23T00:47:52;16.00;;;10.80;;
68577;SDS011;61668;45.388;11.784;2022-07-23T00:50:17;15.10;;;10.40;;
68577;SDS011;61668;45.388;11.784;2022-07-23T00:52:43;15.50;;;11.80;;
68577;SDS011;61668;45.388;11.784;2022-07-23T00:55:10;16.40;;;11.10;;
68577;SDS011;61668;45.388;11.784;2022-07-23T00:57:37;15.30;;;11.10;;
68577;SDS011;61668;45.388;11.784;2022-07-23T01:00:06;15.10;;;11.20;;
68577;SDS011;61668;45.388;11.784;2022-07-23T01:02:33;16.60;;;11.50;;
68577;SDS011;61668;45.388;11.784;2022-07-23T01:04:59;17.60;;;11.80;;
68577;SDS011;61668;45.388;11.784;2022-07-23T01:07:24;18.70;;;12.40;;
68577;SDS011;61668;45.388;11.784;2022-07-23T01:09:50;17.40;;;11.40;;
68577;SDS011;61668;45.388;11.784;2022-07-23T01:12:16;15.00;;;10.80;;
68577;SDS011;61668;45.388;11.784;2022-07-23T01:14:42;17.10;;;12.30;;
68577;SDS011;61668;45.388;11.784;2022-07-23T01:17:08;17.80;;;12.70;;
68577;SDS011;61668;45.388;11.784;2022-07-23T01:19:33;20.00;;;13.60;;
68577;SDS011;61668;45.388;11.784;2022-07-23T01:22:02;16.20;;;11.80;;
68577;SDS011;61668;45.388;11.784;2022-07-23T01:24:29;17.10;;;11.40;;
68577;SDS011;61668;45.388;11.784;2022-07-23T01:26:55;18.00;;;11.80;;
68577;SDS011;61668;45.388;11.784;2022-07-23T01:29:21;17.20;;;12.20;;
68577;SDS011;61668;45.388;11.784;2022-07-23T01:31:47;15.40;;;11.30;;
68577;SDS011;61668;45.388;11.784;2022-07-23T01:34:13;19.40;;;13.20;;
68577;SDS011;61668;45.388;11.784;2022-07-23T01:36:39;17.00;;;12.50;;
68577;SDS011;61668;45.388;11.784;2022-07-23T01:39:06;17.70;;;11.90;;
68577;SDS011;61668;45.388;11.784;2022-07-23T01:41:33;17.00;;;13.30;;
68577;SDS011;61668;45.388;11.784;2022-07-23T01:44:00;18.60;;;12.70;;
68577;SDS011;61668;45.388;11.784;2022-07-23T01:46:25;17.50;;;12.80;;
68577;SDS011;61668;45.388;11.784;2022-07-23T01:48:51;16.70;;;12.60;;
68577;SDS011;61668;45.388;11.784;2022-07-23T01:51:16;18.10;;;13.40;;
68577;SDS011;61668;45.388;11.784;2022-07-23T01:53:42;19.40;;;14.90;;
68577;SDS011;61668;45.388;11.784;2022-07-23T01:56:08;18.80;;;15.10;;
68577;SDS011;61668;45.388;11.784;2022-07-23T01:58:33;18.20;;;13.00;;
68577;SDS011;61668;45.388;11.784;2022-07-23T02:00:59;18.40;;;13.70;;
68577;SDS011;61668;45.388;11.784;2022-07-23T02:03:25;19.80;;;13.80;;
68577;SDS011;61668;45.388;11.784;2022-07-23T02:05:51;18.90;;;14.90;;
68577;SDS011;61668;45.388;11.784;2022-07-23T02:08:17;19.90;;;15.70;;
68577;SDS011;61668;45.388;11.784;2022-07-23T02:10:43;22.00;;;15.90;;
68577;SDS011;61668;45.388;11.784;2022-07-23T02:13:08;21.50;;;16.80;;
68577;SDS011;61668;45.388;11.784;2022-07-23T02:15:34;20.40;;;15.40;;
68577;SDS011;61668;45.388;11.784;2022-07-23T02:18:00;18.90;;;14.40;;
68577;SDS011;61668;45.388;11.784;2022-07-23T02:20:25;20.40;;;15.40;;
68577;SDS011;61668;45.388;11.784;2022-07-23T02:22:51;20.50;;;14.80;;
68577;SDS011;61668;45.388;11.784;2022-07-23T02:25:17;18.70;;;14.00;;
68577;SDS011;61668;45.388;11.784;2022-07-23T02:27:43;20.90;;;15.20;;
68577;SDS011;61668;45.388;11.784;2022-07-23T02:30:09;19.70;;;15.20;;
68577;SDS011;61668;45.388;11.784;2022-07-23T02:32:35;18.80;;;15.60;;
68577;SDS011;61668;45.388;11.784;2022-07-23T02:35:02;19.80;;;15.20;;
68577;SDS011;61668;45.388;11.784;2022-07-23T02:37:28;19.20;;;14.90;;
68577;SDS011;61668;45.388;11.784;2022-07-23T02:39:53;23.40;;;17.80;;
68577;SDS011;61668;45.388;11.784;2022-07-23T02:42:19;22.00;;;18.10;;
68577;SDS011;61668;45.388;11.784;2022-07-23T02:44:45;24.80;;;17.00;;
68577;SDS011;61668;45.388;11.784;2022-07-23T02:47:10;23.90;;;17.30;;
68577;SDS011;61668;45.388;11.784;2022-07-23T02:49:36;21.70;;;17.20;;
68577;SDS011;61668;45.388;11.784;2022-07-23T02:52:01;25.20;;;19.10;;
68577;SDS011;61668;45.388;11.784;2022-07-23T02:54:27;23.80;;;17.40;;
68577;SDS011;61668;45.388;11.784;2022-07-23T02:56:53;25.70;;;20.20;;
68577;SDS011;61668;45.388;11.784;2022-07-23T02:59:18;24.90;;;19.90;;
68577;SDS011;61668;45.388;11.784;2022-07-23T03:01:44;25.30;;;19.90;;
68577;SDS011;61668;45.388;11.784;2022-07-23T03:04:10;27.60;;;20.00;;
68577;SDS011;61668;45.388;11.784;2022-07-23T03:06:36;28.70;;;22.30;;
68577;SDS011;61668;45.388;11.784;2022-07-23T03:09:02;26.00;;;20.20;;
68577;SDS011;61668;45.388;11.784;2022-07-23T03:11:29;29.50;;;21.60;;
68577;SDS011;61668;45.388;11.784;2022-07-23T03:13:54;26.00;;;21.60;;
68577;SDS011;61668;45.388;11.784;2022-07-23T03:16:19;28.10;;;21.60;;
68577;SDS011;61668;45.388;11.784;2022-07-23T03:18:45;27.90;;;22.00;;
68577;SDS011;61668;45.388;11.784;2022-07-23T03:21:10;26.10;;;20.70;;
68577;SDS011;61668;45.388;11.784;2022-07-23T03:23:36;25.50;;;20.00;;
68577;SDS011;61668;45.388;11.784;2022-07-23T03:26:02;24.00;;;19.00;;
68577;SDS011;61668;45.388;11.784;2022-07-23T03:28:27;28.40;;;20.00;;
68577;SDS011;61668;45.388;11.784;2022-07-23T03:30:53;25.20;;;20.10;;
68577;SDS011;61668;45.388;11.784;2022-07-23T03:33:20;27.00;;;22.20;;
68577;SDS011;61668;45.388;11.784;2022-07-23T03:35:47;27.30;;;20.70;;
68577;SDS011;61668;45.388;11.784;2022-07-23T03:38:14;28.30;;;19.90;;
68577;SDS011;61668;45.388;11.784;2022-07-23T03:40:39;27.80;;;20.10;;
68577;SDS011;61668;45.388;11.784;2022-07-23T03:43:05;26.20;;;21.30;;
68577;SDS011;61668;45.388;11.784;2022-07-23T03:45:31;28.70;;;22.20;;
68577;SDS011;61668;45.388;11.784;2022-07-23T03:47:57;30.40;;;21.60;;
68577;SDS011;61668;45.388;11.784;2022-07-23T03:50:23;28.40;;;21.10;;
68577;SDS011;61668;45.388;11.784;2022-07-23T03:52:49;27.20;;;20.30;;
68577;SDS011;61668;45.388;11.784;2022-07-23T03:55:15;26.30;;;21.10;;
68577;SDS011;61668;45.388;11.784;2022-07-23T03:57:41;27.90;;;21.30;;
68577;SDS011;61668;45.388;11.784;2022-07-23T04:00:08;27.30;;;21.50;;
68577;SDS011;61668;45.388;11.784;2022-07-23T04:02:36;27.10;;;20.90;;
68577;SDS011;61668;45.388;11.784;2022-07-23T04:05:02;26.00;;;21.70;;
68577;SDS011;61668;45.388;11.784;2022-07-23T04:07:28;29.40;;;22.10;;
68577;SDS011;61668;45.388;11.784;2022-07-23T04:09:54;26.90;;;22.30;;
68577;SDS011;61668;45.388;11.784;2022-07-23T04:12:19;27.90;;;22.20;;
68577;SDS011;61668;45.388;11.784;2022-07-23T04:14:45;26.90;;;21.90;;
68577;SDS011;61668;45.388;11.784;2022-07-23T04:17:11;27.00;;;21.90;;
68577;SDS011;61668;45.388;11.784;2022-07-23T04:19:37;26.50;;;20.90;;
68577;SDS011;61668;45.388;11.784;2022-07-23T04:22:07;25.90;;;22.00;;
68577;SDS011;61668;45.388;11.784;2022-07-23T04:24:33;28.90;;;21.30;;
68577;SDS011;61668;45.388;11.784;2022-07-23T04:26:59;27.10;;;21.60;;
68577;SDS011;61668;45.388;11.784;2022-07-23T04:29:25;25.70;;;20.80;;
68577;SDS011;61668;45.388;11.784;2022-07-23T04:31:51;24.50;;;19.20;;
68577;SDS011;61668;45.388;11.784;2022-07-23T04:34:17;27.60;;;20.50;;
68577;SDS011;61668;45.388;11.784;2022-07-23T04:36:42;26.00;;;20.20;;
68577;SDS011;61668;45.388;11.784;2022-07-23T04:39:08;28.60;;;21.70;;
68577;SDS011;61668;45.388;11.784;2022-07-23T04:41:34;29.70;;;21.70;;
68577;SDS011;61668;45.388;11.784;2022-07-23T04:44:00;28.80;;;21.30;;
68577;SDS011;61668;45.388;11.784;2022-07-23T04:46:26;27.60;;;21.30;;
68577;SDS011;61668;45.388;11.784;2022-07-23T04:48:53;25.70;;;20.60;;
68577;SDS011;61668;45.388;11.784;2022-07-23T04:51:19;26.40;;;20.00;;
68577;SDS011;61668;45.388;11.784;2022-07-23T04:53:45;26.80;;;20.30;;
68577;SDS011;61668;45.388;11.784;2022-07-23T04:56:10;28.20;;;22.00;;
68577;SDS011;61668;45.388;11.784;2022-07-23T04:58:36;27.20;;;21.30;;
68577;SDS011;61668;45.388;11.784;2022-07-23T05:01:02;25.90;;;19.90;;
68577;SDS011;61668;45.388;11.784;2022-07-23T05:03:28;25.20;;;20.10;;
68577;SDS011;61668;45.388;11.784;2022-07-23T05:05:54;25.90;;;20.60;;
68577;SDS011;61668;45.388;11.784;2022-07-23T05:08:19;28.40;;;21.80;;
68577;SDS011;61668;45.388;11.784;2022-07-23T05:10:46;27.00;;;21.70;;
68577;SDS011;61668;45.388;11.784;2022-07-23T05:13:11;26.20;;;20.50;;
68577;SDS011;61668;45.388;11.784;2022-07-23T05:15:37;27.00;;;20.80;;
68577;SDS011;61668;45.388;11.784;2022-07-23T05:18:02;26.40;;;19.80;;
68577;SDS011;61668;45.388;11.784;2022-07-23T05:20:28;25.60;;;21.10;;
68577;SDS011;61668;45.388;11.784;2022-07-23T05:22:53;29.80;;;22.90;;
68577;SDS011;61668;45.388;11.784;2022-07-23T05:25:19;29.60;;;22.30;;
68577;SDS011;61668;45.388;11.784;2022-07-23T05:27:45;29.40;;;21.30;;
68577;SDS011;61668;45.388;11.784;2022-07-23T05:30:11;24.80;;;20.30;;
68577;SDS011;61668;45.388;11.784;2022-07-23T05:32:37;26.90;;;20.30;;
68577;SDS011;61668;45.388;11.784;2022-07-23T05:35:05;23.80;;;20.70;;
68577;SDS011;61668;45.388;11.784;2022-07-23T05:37:31;26.20;;;21.00;;
68577;SDS011;61668;45.388;11.784;2022-07-23T05:40:05;27.30;;;20.60;;
68577;SDS011;61668;45.388;11.784;2022-07-23T05:42:33;26.50;;;19.90;;
68577;SDS011;61668;45.388;11.784;2022-07-23T05:44:59;26.60;;;19.30;;
68577;SDS011;61668;45.388;11.784;2022-07-23T05:47:25;26.20;;;21.10;;
68577;SDS011;61668;45.388;11.784;2022-07-23T05:49:50;25.10;;;20.70;;
68577;SDS011;61668;45.388;11.784;2022-07-23T05:52:16;33.30;;;20.50;;
68577;SDS011;61668;45.388;11.784;2022-07-23T05:54:42;28.30;;;20.80;;
68577;SDS011;61668;45.388;11.784;2022-07-23T05:57:07;23.90;;;18.60;;
68577;SDS011;61668;45.388;11.784;2022-07-23T05:59:33;23.70;;;18.70;;
68577;SDS011;61668;45.388;11.784;2022-07-23T06:01:58;21.20;;;17.90;;
68577;SDS011;61668;45.388;11.784;2022-07-23T06:04:24;21.50;;;17.00;;
68577;SDS011;61668;45.388;11.784;2022-07-23T06:06:49;22.20;;;18.10;;
68577;SDS011;61668;45.388;11.784;2022-07-23T06:09:15;25.30;;;19.10;;
68577;SDS011;61668;45.388;11.784;2022-07-23T06:11:41;23.70;;;18.20;;
68577;SDS011;61668;45.388;11.784;2022-07-23T06:14:06;23.10;;;17.90;;
68577;SDS011;61668;45.388;11.784;2022-07-23T06:16:32;25.60;;;17.90;;
68577;SDS011;61668;45.388;11.784;2022-07-23T06:18:57;21.30;;;17.70;;
68577;SDS011;61668;45.388;11.784;2022-07-23T06:21:23;22.50;;;16.90;;
68577;SDS011;61668;45.388;11.784;2022-07-23T06:23:48;21.40;;;17.80;;
68577;SDS011;61668;45.388;11.784;2022-07-23T06:26:14;20.70;;;17.50;;
68577;SDS011;61668;45.388;11.784;2022-07-23T06:28:40;19.60;;;17.10;;
68577;SDS011;61668;45.388;11.784;2022-07-23T06:31:05;22.20;;;18.20;;
68577;SDS011;61668;45.388;11.784;2022-07-23T06:33:31;18.80;;;16.50;;
68577;SDS011;61668;45.388;11.784;2022-07-23T06:35:56;19.30;;;17.30;;
68577;SDS011;61668;45.388;11.784;2022-07-23T06:38:22;19.20;;;17.20;;
68577;SDS011;61668;45.388;11.784;2022-07-23T06:40:47;19.40;;;16.70;;
68577;SDS011;61668;45.388;11.784;2022-07-23T06:43:13;19.30;;;16.70;;
68577;SDS011;61668;45.388;11.784;2022-07-23T06:45:38;20.40;;;17.60;;
68577;SDS011;61668;45.388;11.784;2022-07-23T06:48:04;19.30;;;16.10;;
68577;SDS011;61668;45.388;11.784;2022-07-23T06:50:30;19.80;;;17.10;;
68577;SDS011;61668;45.388;11.784;2022-07-23T06:52:55;19.80;;;16.60;;
68577;SDS011;61668;45.388;11.784;2022-07-23T06:55:21;18.50;;;16.50;;
68577;SDS011;61668;45.388;11.784;2022-07-23T06:57:46;21.30;;;17.50;;
68577;SDS011;61668;45.388;11.784;2022-07-23T07:00:12;23.90;;;17.10;;
68577;SDS011;61668;45.388;11.784;2022-07-23T07:02:38;22.20;;;17.70;;
68577;SDS011;61668;45.388;11.784;2022-07-23T07:05:04;20.40;;;17.60;;
68577;SDS011;61668;45.388;11.784;2022-07-23T07:07:30;21.70;;;18.10;;
68577;SDS011;61668;45.388;11.784;2022-07-23T07:09:55;21.70;;;17.60;;
68577;SDS011;61668;45.388;11.784;2022-07-23T07:12:20;20.90;;;18.70;;
68577;SDS011;61668;45.388;11.784;2022-07-23T07:14:46;21.60;;;17.90;;
68577;SDS011;61668;45.388;11.784;2022-07-23T07:17:11;21.50;;;17.80;;
68577;SDS011;61668;45.388;11.784;2022-07-23T07:19:37;21.40;;;17.90;;
68577;SDS011;61668;45.388;11.784;2022-07-23T07:22:02;21.40;;;19.20;;
68577;SDS011;61668;45.388;11.784;2022-07-23T07:24:28;23.30;;;19.30;;
68577;SDS011;61668;45.388;11.784;2022-07-23T07:26:54;21.50;;;18.90;;
68577;SDS011;61668;45.388;11.784;2022-07-23T07:29:19;23.30;;;20.40;;
68577;SDS011;61668;45.388;11.784;2022-07-23T07:31:45;22.70;;;20.20;;
68577;SDS011;61668;45.388;11.784;2022-07-23T07:34:10;23.50;;;20.90;;
68577;SDS011;61668;45.388;11.784;2022-07-23T07:36:36;22.70;;;18.00;;
68577;SDS011;61668;45.388;11.784;2022-07-23T07:39:03;19.00;;;16.60;;
68577;SDS011;61668;45.388;11.784;2022-07-23T07:41:31;21.00;;;18.60;;
68577;SDS011;61668;45.388;11.784;2022-07-23T07:43:56;21.10;;;18.50;;
68577;SDS011;61668;45.388;11.784;2022-07-23T07:46:22;19.80;;;17.60;;
68577;SDS011;61668;45.388;11.784;2022-07-23T07:48:50;21.40;;;17.30;;
68577;SDS011;61668;45.388;11.784;2022-07-23T07:51:15;20.20;;;16.20;;
68577;SDS011;61668;45.388;11.784;2022-07-23T07:53:41;20.10;;;16.00;;
68577;SDS011;61668;45.388;11.784;2022-07-23T07:56:07;19.60;;;17.40;;
68577;SDS011;61668;45.388;11.784;2022-07-23T07:58:32;23.30;;;19.80;;
68577;SDS011;61668;45.388;11.784;2022-07-23T08:00:58;21.70;;;18.20;;
68577;SDS011;61668;45.388;11.784;2022-07-23T08:03:24;21.80;;;18.90;;
68577;SDS011;61668;45.388;11.784;2022-07-23T08:05:49;22.10;;;17.30;;
68577;SDS011;61668;45.388;11.784;2022-07-23T08:08:15;22.00;;;18.10;;
68577;SDS011;61668;45.388;11.784;2022-07-23T08:10:42;22.30;;;17.70;;
68577;SDS011;61668;45.388;11.784;2022-07-23T08:13:13;18.40;;;15.90;;
68577;SDS011;61668;45.388;11.784;2022-07-23T08:15:40;19.90;;;16.90;;
68577;SDS011;61668;45.388;11.784;2022-07-23T08:18:06;19.70;;;16.60;;
68577;SDS011;61668;45.388;11.784;2022-07-23T08:20:31;19.00;;;16.20;;
68577;SDS011;61668;45.388;11.784;2022-07-23T08:23:05;18.60;;;16.70;;
68577;SDS011;61668;45.388;11.784;2022-07-23T08:25:35;18.10;;;16.20;;
68577;SDS011;61668;45.388;11.784;2022-07-23T08:28:04;19.50;;;15.90;;
68577;SDS011;61668;45.388;11.784;2022-07-23T08:30:31;17.90;;;16.00;;
68577;SDS011;61668;45.388;11.784;2022-07-23T08:35:44;20.80;;;17.80;;
68577;SDS011;61668;45.388;11.784;2022-07-23T08:38:15;19.30;;;17.20;;
68577;SDS011;61668;45.388;11.784;2022-07-23T08:40:44;21.10;;;18.60;;
68577;SDS011;61668;45.388;11.784;2022-07-23T08:43:17;19.70;;;17.60;;
68577;SDS011;61668;45.388;11.784;2022-07-23T08:45:46;22.20;;;19.50;;
68577;SDS011;61668;45.388;11.784;2022-07-23T08:48:19;19.60;;;17.50;;
68577;SDS011;61668;45.388;11.784;2022-07-23T08:50:51;20.20;;;18.10;;
68577;SDS011;61668;45.388;11.784;2022-07-23T08:53:20;18.30;;;16.30;;
68577;SDS011;61668;45.388;11.784;2022-07-23T08:55:52;20.20;;;17.90;;
68577;SDS011;61668;45.388;11.784;2022-07-23T08:58:20;18.30;;;16.40;;
68577;SDS011;61668;45.388;11.784;2022-07-23T09:00:47;18.10;;;16.10;;
68577;SDS011;61668;45.388;11.784;2022-07-23T09:03:21;20.20;;;17.70;;
68577;SDS011;61668;45.388;11.784;2022-07-23T09:05:52;20.40;;;18.20;;
68577;SDS011;61668;45.388;11.784;2022-07-23T09:08:33;17.50;;;14.80;;
68577;SDS011;61668;45.388;11.784;2022-07-23T09:11:03;17.20;;;15.50;;
68577;SDS011;61668;45.388;11.784;2022-07-23T09:13:45;17.80;;;16.00;;
68577;SDS011;61668;45.388;11.784;2022-07-23T09:19:01;16.80;;;14.60;;
68577;SDS011;61668;45.388;11.784;2022-07-23T09:21:38;17.20;;;15.50;;
68577;SDS011;61668;45.388;11.784;2022-07-23T09:24:09;17.70;;;15.90;;
68577;SDS011;61668;45.388;11.784;2022-07-23T09:26:39;17.30;;;15.50;;
68577;SDS011;61668;45.388;11.784;2022-07-23T09:29:19;17.40;;;15.60;;
68577;SDS011;61668;45.388;11.784;2022-07-23T09:31:58;18.30;;;16.30;;
68577;SDS011;61668;45.388;11.784;2022-07-23T09:34:35;17.90;;;16.00;;
68577;SDS011;61668;45.388;11.784;2022-07-23T09:37:12;17.90;;;16.10;;
68577;SDS011;61668;45.388;11.784;2022-07-23T09:39:43;17.20;;;15.40;;
68577;SDS011;61668;45.388;11.784;2022-07-23T09:42:19;17.50;;;15.40;;
68577;SDS011;61668;45.388;11.784;2022-07-23T09:44:53;16.40;;;14.50;;
68577;SDS011;61668;45.388;11.784;2022-07-23T09:47:22;16.70;;;14.90;;
68577;SDS011;61668;45.388;11.784;2022-07-23T09:50:06;15.70;;;14.00;;
68577;SDS011;61668;45.388;11.784;2022-07-23T09:52:44;16.80;;;14.80;;
68577;SDS011;61668;45.388;11.784;2022-07-23T09:55:12;16.60;;;14.90;;
68577;SDS011;61668;45.388;11.784;2022-07-23T09:57:40;15.70;;;13.40;;
68577;SDS011;61668;45.388;11.784;2022-07-23T10:00:08;16.00;;;14.40;;
68577;SDS011;61668;45.388;11.784;2022-07-23T10:02:37;16.50;;;14.40;;
68577;SDS011;61668;45.388;11.784;2022-07-23T10:05:04;17.10;;;15.10;;
68577;SDS011;61668;45.388;11.784;2022-07-23T10:07:37;16.50;;;14.70;;
68577;SDS011;61668;45.388;11.784;2022-07-23T10:10:04;15.70;;;13.40;;
68577;SDS011;61668;45.388;11.784;2022-07-23T10:12:31;14.90;;;13.30;;
68577;SDS011;61668;45.388;11.784;2022-07-23T10:15:08;15.40;;;13.10;;
68577;SDS011;61668;45.388;11.784;2022-07-23T10:17:35;16.40;;;14.70;;
68577;SDS011;61668;45.388;11.784;2022-07-23T10:20:02;15.70;;;13.60;;
68577;SDS011;61668;45.388;11.784;2022-07-23T10:22:42;21.10;;;14.10;;
68577;SDS011;61668;45.388;11.784;2022-07-23T10:28:12;14.80;;;12.60;;
68577;SDS011;61668;45.388;11.784;2022-07-23T10:31:54;13.50;;;11.70;;
68577;SDS011;61668;45.388;11.784;2022-07-23T10:39:24;15.80;;;14.10;;
68577;SDS011;61668;45.388;11.784;2022-07-23T10:41:52;15.60;;;11.90;;
68577;SDS011;61668;45.388;11.784;2022-07-23T10:44:20;14.40;;;12.30;;
68577;SDS011;61668;45.388;11.784;2022-07-23T10:46:58;13.90;;;12.20;;
68577;SDS011;61668;45.388;11.784;2022-07-23T10:49:33;13.40;;;11.80;;
68577;SDS011;61668;45.388;11.784;2022-07-23T10:52:22;16.50;;;12.40;;
68577;SDS011;61668;45.388;11.784;2022-07-23T10:55:38;12.70;;;10.30;;
68577;SDS011;61668;45.388;11.784;2022-07-23T10:57:51;12.40;;;10.40;;
68577;SDS011;61668;45.388;11.784;2022-07-23T11:00:24;12.50;;;10.90;;
68577;SDS011;61668;45.388;11.784;2022-07-23T11:03:05;11.80;;;10.40;;
68577;SDS011;61668;45.388;11.784;2022-07-23T11:06:09;12.50;;;10.60;;
68577;SDS011;61668;45.388;11.784;2022-07-23T11:08:35;11.50;;;9.50;;
68577;SDS011;61668;45.388;11.784;2022-07-23T11:13:35;13.10;;;9.70;;
68577;SDS011;61668;45.388;11.784;2022-07-23T11:16:11;12.70;;;10.40;;
68577;SDS011;61668;45.388;11.784;2022-07-23T11:26:51;12.40;;;9.00;;
68577;SDS011;61668;45.388;11.784;2022-07-23T11:37:05;10.70;;;8.90;;
68577;SDS011;61668;45.388;11.784;2022-07-23T11:39:33;10.70;;;8.80;;
68577;SDS011;61668;45.388;11.784;2022-07-23T11:42:00;11.00;;;8.60;;
68577;SDS011;61668;45.388;11.784;2022-07-23T11:44:27;11.50;;;9.00;;
68577;SDS011;61668;45.388;11.784;2022-07-23T11:46:55;11.10;;;8.90;;
68577;SDS011;61668;45.388;11.784;2022-07-23T11:49:23;11.40;;;8.00;;
68577;SDS011;61668;45.388;11.784;2022-07-23T11:54:46;10.40;;;7.60;;
68577;SDS011;61668;45.388;11.784;2022-07-23T11:57:32;10.60;;;7.90;;
68577;SDS011;61668;45.388;11.784;2022-07-23T12:00:17;10.80;;;8.50;;
68577;SDS011;61668;45.388;11.784;2022-07-23T12:02:47;11.20;;;9.30;;
68577;SDS011;61668;45.388;11.784;2022-07-23T12:05:16;12.30;;;9.20;;
68577;SDS011;61668;45.388;11.784;2022-07-23T12:07:44;11.60;;;8.90;;
68577;SDS011;61668;45.388;11.784;2022-07-23T12:10:20;11.90;;;9.70;;
68577;SDS011;61668;45.388;11.784;2022-07-23T12:12:55;11.20;;;10.00;;
68577;SDS011;61668;45.388;11.784;2022-07-23T12:17:56;10.30;;;8.60;;
68577;SDS011;61668;45.388;11.784;2022-07-23T12:20:28;14.00;;;8.10;;
68577;SDS011;61668;45.388;11.784;2022-07-23T12:22:59;11.50;;;7.60;;
68577;SDS011;61668;45.388;11.784;2022-07-23T12:25:31;10.40;;;8.70;;
68577;SDS011;61668;45.388;11.784;2022-07-23T12:33:13;10.30;;;8.50;;
68577;SDS011;61668;45.388;11.784;2022-07-23T12:35:46;9.90;;;6.90;;
68577;SDS011;61668;45.388;11.784;2022-07-23T12:40:45;10.90;;;8.50;;
68577;SDS011;61668;45.388;11.784;2022-07-23T12:48:22;12.20;;;8.70;;
68577;SDS011;61668;45.388;11.784;2022-07-23T12:50:58;10.30;;;7.40;;
68577;SDS011;61668;45.388;11.784;2022-07-23T12:53:32;11.00;;;7.80;;
68577;SDS011;61668;45.388;11.784;2022-07-23T12:56:01;11.30;;;9.40;;
68577;SDS011;61668;45.388;11.784;2022-07-23T12:58:46;13.10;;;7.90;;
68577;SDS011;61668;45.388;11.784;2022-07-23T13:01:33;10.90;;;8.10;;
68577;SDS011;61668;45.388;11.784;2022-07-23T13:04:18;10.10;;;7.90;;
68577;SDS011;61668;45.388;11.784;2022-07-23T13:06:50;11.30;;;8.40;;
68577;SDS011;61668;45.388;11.784;2022-07-23T13:09:23;10.90;;;8.50;;
68577;SDS011;61668;45.388;11.784;2022-07-23T13:11:54;9.70;;;7.90;;
68577;SDS011;61668;45.388;11.784;2022-07-23T13:14:21;10.30;;;7.30;;
68577;SDS011;61668;45.388;11.784;2022-07-23T13:16:52;10.10;;;7.60;;
68577;SDS011;61668;45.388;11.784;2022-07-23T13:19:18;9.80;;;7.40;;
68577;SDS011;61668;45.388;11.784;2022-07-23T13:21:45;10.80;;;8.10;;
68577;SDS011;61668;45.388;11.784;2022-07-23T13:24:12;10.80;;;8.20;;
68577;SDS011;61668;45.388;11.784;2022-07-23T13:26:39;11.70;;;8.00;;
68577;SDS011;61668;45.388;11.784;2022-07-23T13:29:05;9.90;;;7.10;;
68577;SDS011;61668;45.388;11.784;2022-07-23T13:31:31;10.50;;;7.60;;
68577;SDS011;61668;45.388;11.784;2022-07-23T13:33:57;9.90;;;7.00;;
68577;SDS011;61668;45.388;11.784;2022-07-23T13:36:23;9.10;;;6.70;;
68577;SDS011;61668;45.388;11.784;2022-07-23T13:38:48;9.60;;;7.20;;
68577;SDS011;61668;45.388;11.784;2022-07-23T13:41:16;10.30;;;7.30;;
68577;SDS011;61668;45.388;11.784;2022-07-23T13:43:43;10.20;;;7.80;;
68577;SDS011;61668;45.388;11.784;2022-07-23T13:46:08;9.60;;;7.50;;
68577;SDS011;61668;45.388;11.784;2022-07-23T13:48:34;9.70;;;6.70;;
68577;SDS011;61668;45.388;11.784;2022-07-23T13:50:59;9.80;;;7.40;;
68577;SDS011;61668;45.388;11.784;2022-07-23T13:53:25;8.90;;;7.10;;
68577;SDS011;61668;45.388;11.784;2022-07-23T13:55:52;9.00;;;5.80;;
68577;SDS011;61668;45.388;11.784;2022-07-23T13:58:18;10.00;;;7.30;;
68577;SDS011;61668;45.388;11.784;2022-07-23T14:00:48;9.10;;;6.50;;
68577;SDS011;61668;45.388;11.784;2022-07-23T14:03:17;9.20;;;6.40;;
68577;SDS011;61668;45.388;11.784;2022-07-23T14:05:45;10.30;;;6.10;;
68577;SDS011;61668;45.388;11.784;2022-07-23T14:08:11;8.80;;;6.30;;
68577;SDS011;61668;45.388;11.784;2022-07-23T14:10:36;8.00;;;4.90;;
68577;SDS011;61668;45.388;11.784;2022-07-23T14:13:02;8.90;;;5.40;;
68577;SDS011;61668;45.388;11.784;2022-07-23T14:15:30;8.70;;;5.90;;
68577;SDS011;61668;45.388;11.784;2022-07-23T14:17:57;9.30;;;5.10;;
68577;SDS011;61668;45.388;11.784;2022-07-23T14:20:23;9.10;;;5.30;;
68577;SDS011;61668;45.388;11.784;2022-07-23T14:22:49;10.00;;;5.80;;
68577;SDS011;61668;45.388;11.784;2022-07-23T14:25:16;9.90;;;6.00;;
68577;SDS011;61668;45.388;11.784;2022-07-23T14:27:42;10.00;;;6.50;;
68577;SDS011;61668;45.388;11.784;2022-07-23T14:30:09;8.20;;;5.50;;
68577;SDS011;61668;45.388;11.784;2022-07-23T14:32:36;9.30;;;6.30;;
68577;SDS011;61668;45.388;11.784;2022-07-23T14:35:03;8.70;;;5.80;;
68577;SDS011;61668;45.388;11.784;2022-07-23T14:37:29;9.00;;;6.30;;
68577;SDS011;61668;45.388;11.784;2022-07-23T14:39:55;9.10;;;5.80;;
68577;SDS011;61668;45.388;11.784;2022-07-23T14:42:20;9.10;;;6.40;;
68577;SDS011;61668;45.388;11.784;2022-07-23T14:44:46;8.90;;;5.80;;
68577;SDS011;61668;45.388;11.784;2022-07-23T14:47:11;8.70;;;6.20;;
68577;SDS011;61668;45.388;11.784;2022-07-23T14:49:37;9.60;;;6.00;;
68577;SDS011;61668;45.388;11.784;2022-07-23T14:52:04;8.90;;;6.30;;
68577;SDS011;61668;45.388;11.784;2022-07-23T14:54:31;10.30;;;6.50;;
68577;SDS011;61668;45.388;11.784;2022-07-23T14:56:58;9.70;;;6.00;;
68577;SDS011;61668;45.388;11.784;2022-07-23T14:59:25;10.20;;;6.80;;
68577;SDS011;61668;45.388;11.784;2022-07-23T15:01:52;10.80;;;6.70;;
68577;SDS011;61668;45.388;11.784;2022-07-23T15:04:18;10.70;;;6.50;;
68577;SDS011;61668;45.388;11.784;2022-07-23T15:06:43;9.30;;;7.00;;
68577;SDS011;61668;45.388;11.784;2022-07-23T15:09:10;11.50;;;7.10;;
68577;SDS011;61668;45.388;11.784;2022-07-23T15:11:36;10.60;;;7.60;;